Flight Track Log - Related Links

Times and Time Zones

All times are in EDT time to prevent confusion due to time zone crossing. See the SKW5516 flight status page for this flight to view local times or setup timezone preferences in your user account.

Time Position Orientation Groundspeed Altitude Reporting Facility
EDT Latitude Longitude Course Direction KTS MPH feet Rate Location/Type
Mon 08:50:09 AM 38.9000 -77.4667 218° Southwest 191 220 2,400  Level Potomac TRACON
Mon 08:51:09 AM 38.8500 -77.5167 218° Southwest 238 274 4,400 2,264 Climbing Potomac TRACON
Mon 08:52:48 AM 38.7839 -77.6156 229° Southwest 248 285 8,400 2,140 Climbing Washington Center
Mon 08:53:46 AM 38.7636 -77.7056 254° West 253 291 10,000 1,866 Climbing Washington Center
Mon 08:54:47 AM 38.7742 -77.8125 277° West 273 314 12,100 1,820 Climbing Washington Center
Mon 08:55:48 AM 38.7864 -77.9272 278° West 302 348 13,700 1,488 Climbing Washington Center
Mon 08:56:48 AM 38.8172 -78.0561 287° West 327 376 15,100 1,513 Climbing Washington Center
Mon 08:57:47 AM 38.8458 -78.1797 287° West 347 399 16,700 1,513 Climbing Washington Center
Mon 08:58:47 AM 38.8536 -78.3081 274° West 360 414 18,100 1,412 Climbing Washington Center
Mon 08:59:46 AM 38.8525 -78.4411 269° West 365 420 19,500 1,350 Climbing Washington Center
Mon 09:00:47 AM 38.8514 -78.5772 269° West 370 426 20,800 1,190 Climbing Washington Center
Mon 09:01:47 AM 38.8500 -78.7131 269° West 382 440 21,900 1,210 Climbing Washington Center
Mon 09:02:46 AM 38.8483 -78.8517 269° West 387 445 23,200 1,150 Climbing Washington Center
Mon 09:03:47 AM 38.8467 -78.9928 269° West 387 445 24,200 950 Climbing Washington Center
Mon 09:04:46 AM 38.8425 -79.1311 268° West 387 445 25,100 800 Climbing Washington Center
Mon 09:05:47 AM 38.8300 -79.2692 263° West 392 451 25,800 787 Climbing Washington Center
Mon 09:06:48 AM 38.8050 -79.4092 257° West 399 459 26,700 958 Climbing Washington Center
Mon 09:07:46 AM 38.7836 -79.5492 259° West 404 465 27,700 1,017 Climbing Washington Center
Mon 09:08:46 AM 38.7561 -79.6889 256° West 411 473 28,700 994 Climbing Washington Center
Mon 09:10:41 AM 38.7064 -79.9286 255° West 397 457 30,600 814 Climbing Indianapolis Center
Mon 09:11:43 AM 38.6808 -80.0664 257° West 396 456 31,100 488 Climbing Indianapolis Center
Mon 09:12:44 AM 38.6533 -80.2078 256° West 408 470 31,600 829 Climbing Indianapolis Center
Mon 09:13:46 AM 38.6225 -80.3778 257° West 407 468 32,800 1,065 Climbing Indianapolis Center
Mon 09:14:48 AM 38.5961 -80.5167 256° West 402 463 33,800 780 Climbing Indianapolis Center
Mon 09:15:49 AM 38.5703 -80.6528 256° West 395 455 34,400 537 Climbing Indianapolis Center
Mon 09:16:51 AM 38.5436 -80.7908 256° West 399 459 34,900 726 Climbing Indianapolis Center
Mon 09:17:53 AM 38.5169 -80.9286 256° West 398 458 35,900 532 Climbing Indianapolis Center
Mon 09:18:55 AM 38.4894 -81.0644 256° West 394 453 36,000 49 Climbing Indianapolis Center
Mon 09:19:56 AM 38.4625 -81.2036 256° West 399 459 36,000  Level Indianapolis Center
Mon 09:20:58 AM 38.4339 -81.3439 255° West 402 463 36,000  Level Indianapolis Center
Mon 09:22:00 AM 38.4069 -81.4844 256° West 402 463 36,000  Level Indianapolis Center
Mon 09:23:02 AM 38.3783 -81.6253 256° West 404 465 36,000  Level Indianapolis Center
Mon 09:24:03 AM 38.3444 -81.7897 255° West 399 459 36,000  Level Indianapolis Center
Mon 09:25:05 AM 38.3061 -81.9217 250° West 395 455 36,000  Level Indianapolis Center
Mon 09:26:07 AM 38.2697 -82.0547 251° West 393 452 36,000  Level Indianapolis Center
Mon 09:27:09 AM 38.2333 -82.1844 250° West 394 453 36,000  Level Indianapolis Center
Mon 09:28:10 AM 38.1964 -82.3150 250° West 393 452 36,000  Level Indianapolis Center
Mon 09:29:12 AM 38.1583 -82.4444 250° West 391 450 36,000 -48 Level Indianapolis Center
Mon 09:30:14 AM 38.1158 -82.5947 250° West 389 448 35,900  Descending Indianapolis Center
Mon 09:31:16 AM 38.0794 -82.7222 250° West 386 444 36,000 48 Climbing Indianapolis Center
Mon 09:32:18 AM 38.0414 -82.8528 250° West 390 449 36,000  Level Indianapolis Center
Mon 09:33:19 AM 38.0050 -82.9800 250° West 386 444 36,000  Level Indianapolis Center
Mon 09:34:21 AM 37.9669 -83.1083 249° West 388 447 36,000  Level Indianapolis Center
Mon 09:35:23 AM 37.9292 -83.2383 250° West 391 450 36,000  Level Indianapolis Center
Mon 09:36:25 AM 37.8833 -83.3903 249° West 395 455 36,000  Level Indianapolis Center
Mon 09:37:26 AM 37.8442 -83.5239 250° West 402 463 36,000  Level Indianapolis Center
Mon 09:38:28 AM 37.8047 -83.6547 249° West 400 460 36,000  Level Indianapolis Center
Mon 09:39:30 AM 37.7653 -83.7878 249° West 403 464 36,000  Level Indianapolis Center
Mon 09:40:32 AM 37.7258 -83.9189 249° West 401 461 36,000  Level Indianapolis Center
Mon 09:41:34 AM 37.6850 -84.0519 249° West 404 465 36,000  Level Indianapolis Center
Mon 09:42:36 AM 37.6381 -84.2042 249° West 402 463 36,000  Level Indianapolis Center
Mon 09:43:37 AM 37.5989 -84.3350 249° West 400 460 36,000  Level Indianapolis Center
Mon 09:44:39 AM 37.5583 -84.4664 249° West 401 461 36,000  Level Indianapolis Center
Mon 09:45:41 AM 37.5175 -84.5978 249° West 400 460 36,000  Level Indianapolis Center
Mon 09:46:43 AM 37.4775 -84.7281 249° West 398 458 36,000  Level Indianapolis Center
Mon 09:47:45 AM 37.4375 -84.8575 249° West 396 456 36,000  Level Indianapolis Center
Mon 09:48:47 AM 37.3911 -85.0075 249° West 394 453 36,000  Level Indianapolis Center
Mon 09:49:49 AM 37.3494 -85.1375 248° West 398 458 36,000  Level Indianapolis Center
Mon 09:50:51 AM 37.3067 -85.2686 248° West 404 465 36,000  Level Indianapolis Center
Mon 09:51:53 AM 37.2661 -85.3994 249° West 403 464 36,000  Level Indianapolis Center
Mon 09:52:55 AM 37.2200 -85.5453 248° West 406 467 36,000  Level Indianapolis Center
Mon 09:53:57 AM 37.1772 -85.6772 248° West 406 467 36,000  Level Indianapolis Center
Mon 09:54:59 AM 37.1344 -85.8100 248° West 406 467 36,000  Level Indianapolis Center
Mon 09:56:01 AM 37.0919 -85.9425 248° West 407 468 36,000  Level Indianapolis Center
Mon 09:57:03 AM 37.0483 -86.0756 248° West 411 473 36,000  Level Indianapolis Center
Mon 09:58:05 AM 37.0047 -86.2094 248° West 410 472 36,000  Level Indianapolis Center
Mon 09:59:07 AM 36.9606 -86.3433 248° West 414 476 36,000  Level Indianapolis Center
Mon 09:59:44 AM 36.9322 -86.4328 248° West 419 482 36,000  Level Memphis Center
Mon 10:00:44 AM 36.8694 -86.5578 238° Southwest 419 482 36,000  Level Memphis Center
Mon 10:01:44 AM 36.8086 -86.6772 238° Southwest 424 488 36,000  Level Memphis Center
Mon 10:02:44 AM 36.7456 -86.8044 238° Southwest 424 488 36,000  Level Memphis Center
Mon 10:03:44 AM 36.6781 -86.9289 236° Southwest 430 495 36,000  Level Memphis Center
Mon 10:04:44 AM 36.6150 -87.0558 238° Southwest 435 501 36,000  Level Memphis Center
Mon 10:05:44 AM 36.5494 -87.1825 237° Southwest 435 501 36,000  Level Memphis Center
Mon 10:06:44 AM 36.4817 -87.3089 236° Southwest 441 507 36,000  Level Memphis Center
Mon 10:07:44 AM 36.4078 -87.4458 236° Southwest 441 507 36,000  Level Memphis Center
Mon 10:08:44 AM 36.3419 -87.5692 236° Southwest 447 514 36,000  Level Memphis Center
Mon 10:09:44 AM 36.2758 -87.6950 237° Southwest 447 514 36,000  Level Memphis Center
Mon 10:10:44 AM 36.2097 -87.8208 237° Southwest 447 514 36,000  Level Memphis Center
Mon 10:11:44 AM 36.1433 -87.9436 236° Southwest 442 509 36,000  Level Memphis Center
Mon 10:12:44 AM 36.0769 -88.0661 236° Southwest 442 509 36,000  Level Memphis Center
Mon 10:13:44 AM 36.0183 -88.1731 236° Southwest 436 502 36,000  Level Memphis Center
Mon 10:14:44 AM 35.9517 -88.2928 236° Southwest 430 495 36,000  Level Memphis Center
Mon 10:15:44 AM 35.8869 -88.4122 236° Southwest 430 495 36,000  Level Memphis Center
Mon 10:16:44 AM 35.8178 -88.5369 236° Southwest 430 495 36,000  Level Memphis Center
Mon 10:17:44 AM 35.7508 -88.6611 236° Southwest 435 501 36,000  Level Memphis Center
Mon 10:18:44 AM 35.6836 -88.7800 235° Southwest 435 501 36,000  Level Memphis Center
Mon 10:19:44 AM 35.6122 -88.9142 237° Southwest 435 501 36,000  Level Memphis Center
Mon 10:20:44 AM 35.5467 -89.0353 236° Southwest 435 501 36,000  Level Memphis Center
Mon 10:21:44 AM 35.4750 -89.1536 233° Southwest 440 506 36,000  Level Memphis Center
Mon 10:22:44 AM 35.3947 -89.2644 228° Southwest 440 506 36,000  Level Memphis Center
Mon 10:23:44 AM 35.3247 -89.3644 229° Southwest 440 506 36,000  Level Memphis Center
Mon 10:24:44 AM 35.2442 -89.4775 229° Southwest 435 501 36,000  Level Memphis Center
Mon 10:25:44 AM 35.1675 -89.5850 229° Southwest 435 501 36,000  Level Memphis Center
Mon 10:26:44 AM 35.0889 -89.6972 229° Southwest 435 501 36,000  Level Memphis Center
Mon 10:27:44 AM 35.0103 -89.8094 229° Southwest 435 501 36,000  Level Memphis Center
Mon 10:28:44 AM 34.9272 -89.9264 229° Southwest 446 513 36,000  Level Memphis Center
Mon 10:29:44 AM 34.8422 -90.0333 226° Southwest 451 519 36,000  Level Memphis Center
Mon 10:30:44 AM 34.7608 -90.1422 228° Southwest 445 512 36,000  Level Memphis Center
Mon 10:31:44 AM 34.6797 -90.2511 228° Southwest 445 512 36,000  Level Memphis Center
Mon 10:32:44 AM 34.5983 -90.3597 228° Southwest 445 512 36,000  Level Memphis Center
Mon 10:33:44 AM 34.5192 -90.4681 228° Southwest 440 506 36,000  Level Memphis Center
Mon 10:34:44 AM 34.4375 -90.5761 228° Southwest 440 506 36,000  Level Memphis Center
Mon 10:35:44 AM 34.3558 -90.6867 228° Southwest 443 510 36,000  Level Memphis Center
Mon 10:36:44 AM 34.2658 -90.8044 227° Southwest 443 510 36,000  Level Memphis Center
Mon 10:37:44 AM 34.1839 -90.9144 228° Southwest 438 504 36,000  Level Memphis Center
Mon 10:38:44 AM 34.1022 -91.0244 228° Southwest 438 504 36,000  Level Memphis Center
Mon 10:39:44 AM 34.0181 -91.1292 226° Southwest 438 504 36,000  Level Memphis Center
Mon 10:40:44 AM 33.9358 -91.2411 228° Southwest 438 504 36,000  Level Memphis Center
Mon 10:41:44 AM 33.8517 -91.3503 227° Southwest 438 504 36,000  Level Memphis Center
Mon 10:42:44 AM 33.7778 -91.4467 227° Southwest 443 510 36,000  Level Memphis Center
Mon 10:43:44 AM 33.6933 -91.5556 227° Southwest 443 510 36,000  Level Memphis Center
Mon 10:44:44 AM 33.6108 -91.6667 228° Southwest 443 510 36,000  Level Memphis Center
Mon 10:46:25 AM 33.4742 -91.8506 228° Southwest 450 518 36,000  Level Fort Worth Center
Mon 10:47:25 AM 33.3872 -91.9606 227° Southwest 450 518 36,000  Level Fort Worth Center
Mon 10:48:25 AM 33.3022 -92.0700 227° Southwest 462 532 36,000  Level Fort Worth Center
Mon 10:49:25 AM 33.2050 -92.1903 226° Southwest 462 532 36,000  Level Fort Worth Center
Mon 10:50:25 AM 33.1197 -92.2992 227° Southwest 456 525 36,000  Level Fort Worth Center
Mon 10:51:25 AM 33.0325 -92.4108 227° Southwest 462 532 36,000  Level Fort Worth Center
Mon 10:52:25 AM 32.9428 -92.5197 226° Southwest 462 532 36,000  Level Fort Worth Center
Mon 10:53:25 AM 32.8594 -92.6308 228° Southwest 456 525 36,000  Level Fort Worth Center
Mon 10:54:25 AM 32.7717 -92.7392 226° Southwest 456 525 36,000  Level Fort Worth Center
Mon 10:55:25 AM 32.6839 -92.8497 227° Southwest 461 531 36,000  Level Fort Worth Center
Mon 10:56:25 AM 32.5939 -92.9603 226° Southwest 461 531 36,000  Level Fort Worth Center
Mon 10:57:25 AM 32.5039 -93.0731 227° Southwest 461 531 36,000  Level Fort Worth Center
Mon 10:58:25 AM 32.4158 -93.1856 227° Southwest 461 531 36,000  Level Fort Worth Center
Mon 10:59:25 AM 32.3275 -93.2931 226° Southwest 461 531 36,000  Level Fort Worth Center
Mon 10:59:46 AM 32.2994 -93.3300 228° Southwest 463 533 36,000  Level Houston Center
Mon 11:00:25 AM 32.2372 -93.4053 226° Southwest 461 531 36,000  Level Fort Worth Center
Mon 11:01:25 AM 32.1592 -93.5092 228° Southwest 461 531 36,000  Level Fort Worth Center
Mon 11:01:50 AM 32.1203 -93.5544 225° Southwest 471 542 36,000  Level Houston Center
Mon 11:02:52 AM 32.0319 -93.6619 226° Southwest 461 531 36,000  Level Houston Center
Mon 11:03:54 AM 31.9244 -93.7939 226° Southwest 467 537 36,000  Level Houston Center
Mon 11:04:56 AM 31.8347 -93.9033 226° Southwest 468 539 36,000  Level Houston Center
Mon 11:05:58 AM 31.7425 -94.0158 226° Southwest 473 544 36,000  Level Houston Center
Mon 11:07:00 AM 31.6525 -94.1272 227° Southwest 471 542 36,000  Level Houston Center
Mon 11:08:02 AM 31.5600 -94.2386 226° Southwest 476 548 36,000  Level Houston Center
Mon 11:09:04 AM 31.4683 -94.3494 226° Southwest 473 544 36,000  Level Houston Center
Mon 11:10:07 AM 31.3753 -94.4608 226° Southwest 478 550 36,000  Level Houston Center
Mon 11:11:09 AM 31.2631 -94.5950 226° Southwest 478 550 36,000  Level Houston Center
Mon 11:12:11 AM 31.1778 -94.6989 226° Southwest 485 558 36,000  Level Houston Center
Mon 11:13:13 AM 31.0633 -94.8222 223° Southwest 483 556 36,000  Level Houston Center
Mon 11:14:15 AM 30.9650 -94.9292 223° Southwest 482 555 36,000  Level Houston Center
Mon 11:15:17 AM 30.8678 -95.0336 223° Southwest 477 549 36,000  Level Houston Center
Mon 11:16:19 AM 30.7689 -95.1389 222° Southwest 478 550 36,000  Level Houston Center
Mon 11:17:21 AM 30.6694 -95.2447 222° Southwest 483 556 36,000  Level Houston Center
Mon 11:18:24 AM 30.5714 -95.3503 223° Southwest 481 554 36,000  Level Houston Center
Mon 11:19:26 AM 30.4644 -95.4639 222° Southwest 482 555 36,000  Level Houston Center
Mon 11:20:28 AM 30.3675 -95.5683 223° Southwest 482 555 36,000  Level Houston Center
Mon 11:21:30 AM 30.2692 -95.6714 222° Southwest 479 551 36,000  Level Houston Center
Mon 11:22:32 AM 30.1514 -95.7947 222° Southwest 479 551 36,000  Level Houston Center
Mon 11:23:34 AM 30.0519 -95.8964 222° Southwest 480 552 36,000  Level Houston Center
Mon 11:24:36 AM 29.9519 -96.0006 222° Southwest 485 558 36,000  Level Houston Center
Mon 11:25:38 AM 29.8572 -96.1078 224° Southwest 483 556 36,000  Level Houston Center
Mon 11:26:40 AM 29.8019 -96.2458 245° Southwest 480 552 36,000  Level Houston Center
Mon 11:27:43 AM 29.8072 -96.4300 272° West 483 556 36,000  Level Houston Center
Mon 11:28:45 AM 29.8181 -96.5828 275° West 482 555 36,000  Level Houston Center
Mon 11:29:47 AM 29.8272 -96.7361 274° West 485 558 36,000 -387 Level Houston Center
Mon 11:30:49 AM 29.8372 -96.8894 274° West 486 559 35,200 -2,081 Descending Houston Center
Mon 11:31:51 AM 29.8481 -97.0433 275° West 486 559 31,700 -3,774 Descending Houston Center
Mon 11:32:53 AM 29.8589 -97.2253 274° West 480 552 27,400 -3,774 Descending Houston Center
Mon 11:33:55 AM 29.8683 -97.3753 274° West 474 545 23,900 -3,339 Descending Houston Center
Mon 11:34:57 AM 29.8761 -97.5206 274° West 460 529 20,500 -3,312 Descending Houston Center
Mon 11:36:00 AM 29.8875 -97.6833 275° West 442 509 17,000 -3,300 Descending Houston Center
Mon 11:36:17 AM 29.8897 -97.7253 274° West 436 502 16,100 -2,903 Descending Houston Center
Mon 11:37:02 AM 29.8958 -97.8189 274° West 428 493 14,000 -2,852 Descending Houston Center
Mon 11:37:18 AM 29.8919 -97.8578 263° West 416 479 13,200 -1,452 Descending Houston Center
Mon 11:38:04 AM 29.8622 -97.9431 248° West 368 423 12,500 -885 Descending Houston Center
Mon 11:38:19 AM 29.8542 -97.9661 248° West 348 400 12,300 -871 Descending Houston Center
Mon 11:39:06 AM 29.8239 -98.0372 244° Southwest 321 369 11,600 -1,211 Descending Houston Center
Mon 11:40:08 AM 29.7619 -98.1108 226° Southwest 302 348 10,100 -1,467 Descending Houston Center
Mon 11:41:21 AM 29.6836 -98.1847 219° Southwest 302 348 8,300 -1,306 Descending Houston Center
Mon 11:42:12 AM 29.6292 -98.2358 219° Southwest 295 339 7,400 -1,190 Descending Houston Center
Mon 11:43:17 AM 29.5619 -98.2983 219° Southwest 288 331 6,000 -700 Descending Houston Center
Mon 11:44:12 AM 29.5100 -98.3478 220° Southwest 281 323 6,000 -157 Level Houston Center
Mon 11:45:12 AM 29.4519 -98.4028 220° Southwest 263 303 5,700 -1,140 Descending Houston Center
Mon 11:46:13 AM 29.3947 -98.4650 223° Southwest 264 304 3,700 -1,033 Descending Houston Center
Mon 11:47:14 AM 29.4133 -98.5322 288° West 217 250 3,600 -541 Descending Houston Center
Mon 11:48:15 AM 29.4614 -98.5289 North 170 196 2,600 -992 Descending Houston Center
Mon 11:49:15 AM 29.4961 -98.4958 40° Northeast 151 174 1,600 -806 Descending Houston Center
Mon 11:50:29 AM 29.5350 -98.4597 39° Northeast 143 165 800 -649 Descending Houston Center

Login

Don't have an account? Register now (free) for customized features, flight alerts, and more!